createdAt,value
2019-03-19T00:01:46.818Z,19.10
2019-03-19T00:04:17.204Z,27.20
2019-03-19T00:06:47.521Z,18.90
2019-03-19T00:09:17.817Z,21.07
2019-03-19T00:11:48.129Z,19.77
2019-03-19T00:14:25.431Z,21.20
2019-03-19T00:16:55.804Z,18.33
2019-03-19T00:19:34.373Z,22.37
2019-03-19T00:22:05.024Z,20.47
2019-03-19T00:24:35.577Z,19.13
2019-03-19T00:27:06.004Z,23.67
2019-03-19T00:29:36.346Z,19.80
2019-03-19T00:32:06.666Z,19.17
2019-03-19T00:34:37.148Z,15.30
2019-03-19T00:37:07.915Z,22.63
2019-03-19T00:39:39.019Z,21.37
2019-03-19T00:42:09.976Z,18.17
2019-03-19T00:44:40.515Z,23.03
2019-03-19T00:47:11.003Z,21.50
2019-03-19T00:49:41.654Z,28.43
2019-03-19T00:52:11.853Z,25.47
2019-03-19T00:54:42.200Z,24.97
2019-03-19T00:57:12.403Z,24.00
2019-03-19T00:59:42.695Z,20.87
2019-03-19T01:02:13.387Z,23.23
2019-03-19T01:04:43.690Z,25.57
2019-03-19T01:07:14.285Z,23.83
2019-03-19T01:09:44.612Z,19.27
2019-03-19T01:12:15.266Z,17.60
2019-03-19T01:14:45.839Z,21.90
2019-03-19T01:17:16.477Z,15.80
2019-03-19T01:19:46.801Z,22.83
2019-03-19T01:22:17.384Z,15.50
2019-03-19T01:24:48.423Z,22.77
2019-03-19T01:27:18.969Z,18.30
2019-03-19T01:29:57.826Z,24.37
2019-03-19T01:32:28.307Z,20.87
2019-03-19T01:34:58.602Z,24.37
2019-03-19T01:37:29.351Z,18.30
2019-03-19T01:40:00.017Z,17.67
2019-03-19T01:42:30.630Z,23.80
2019-03-19T01:45:00.875Z,26.73
2019-03-19T01:47:31.175Z,24.27
2019-03-19T01:50:01.828Z,17.50
2019-03-19T01:52:32.153Z,21.90
2019-03-19T01:55:02.456Z,19.17
2019-03-19T01:57:32.983Z,19.97
2019-03-19T02:00:03.736Z,20.07
2019-03-19T02:02:33.959Z,17.90
2019-03-19T02:05:04.474Z,24.80
2019-03-19T02:07:34.705Z,24.57
2019-03-19T02:10:05.632Z,19.87
2019-03-19T02:12:36.059Z,23.20
2019-03-19T02:15:07.761Z,18.27
2019-03-19T02:17:38.104Z,19.53
2019-03-19T02:20:11.846Z,22.50
2019-03-19T02:22:42.249Z,20.87
2019-03-19T02:25:13.085Z,18.67
2019-03-19T02:27:43.794Z,19.27
2019-03-19T02:30:14.351Z,19.43
2019-03-19T02:32:44.653Z,19.57
2019-03-19T02:35:15.014Z,22.13
2019-03-19T02:37:45.244Z,17.17
2019-03-19T02:40:17.740Z,23.17
2019-03-19T02:42:48.281Z,21.50
2019-03-19T02:45:18.817Z,20.47
2019-03-19T02:47:49.295Z,24.77
2019-03-19T02:50:19.964Z,24.70
2019-03-19T02:52:50.438Z,20.97
2019-03-19T02:55:21.191Z,16.67
2019-03-19T02:57:51.510Z,16.83
2019-03-19T03:00:21.750Z,21.27
2019-03-19T03:02:52.035Z,18.47
2019-03-19T03:05:22.776Z,17.77
2019-03-19T03:07:53.039Z,28.10
2019-03-19T03:10:24.051Z,19.07
2019-03-19T03:12:54.929Z,18.50
2019-03-19T03:15:25.186Z,19.50
2019-03-19T03:17:55.452Z,17.37
2019-03-19T03:20:25.719Z,16.37
2019-03-19T03:22:56.256Z,22.30
2019-03-19T03:25:26.527Z,20.07
2019-03-19T03:27:57.398Z,23.00
2019-03-19T03:30:30.851Z,25.33
2019-03-19T03:33:01.162Z,16.27
2019-03-19T03:35:31.413Z,20.87
2019-03-19T03:38:02.197Z,21.90
2019-03-19T03:40:32.711Z,19.90
2019-03-19T03:43:03.013Z,21.47
2019-03-19T03:45:33.233Z,19.23
2019-03-19T03:48:03.655Z,16.53
2019-03-19T03:50:34.555Z,22.30
2019-03-19T03:53:04.886Z,19.93
2019-03-19T03:55:36.133Z,17.73
2019-03-19T03:58:06.557Z,18.37
2019-03-19T04:00:37.136Z,15.50
2019-03-19T04:03:07.420Z,20.93
2019-03-19T04:05:37.742Z,17.33
2019-03-19T04:08:08.357Z,22.90
2019-03-19T04:10:39.004Z,20.03
2019-03-19T04:13:09.522Z,18.47
2019-03-19T04:15:39.763Z,21.30
2019-03-19T04:18:10.052Z,19.60
2019-03-19T04:20:41.577Z,20.10
2019-03-19T04:23:11.703Z,26.07
2019-03-19T04:25:42.003Z,20.57
2019-03-19T04:28:12.349Z,20.93
2019-03-19T04:30:42.656Z,24.97
2019-03-19T04:33:12.930Z,20.90
2019-03-19T04:35:43.368Z,19.67
2019-03-19T04:38:13.887Z,21.67
2019-03-19T04:40:49.501Z,21.20
2019-03-19T04:43:19.714Z,23.00
2019-03-19T04:45:50.025Z,22.27
2019-03-19T04:48:20.161Z,24.43
2019-03-19T04:50:50.410Z,19.60
2019-03-19T04:53:21.169Z,21.53
2019-03-19T04:55:51.645Z,29.30
2019-03-19T04:58:22.175Z,22.80
2019-03-19T05:00:52.449Z,22.97
2019-03-19T05:03:23.850Z,21.50
2019-03-19T05:05:54.579Z,17.23
2019-03-19T05:08:25.057Z,24.07
2019-03-19T05:10:55.719Z,23.43
2019-03-19T05:13:26.460Z,20.10
2019-03-19T05:15:56.816Z,21.37
2019-03-19T05:18:27.455Z,24.73
2019-03-19T05:20:57.959Z,20.87
2019-03-19T05:23:28.238Z,21.80
2019-03-19T05:25:58.550Z,23.67
2019-03-19T05:28:28.757Z,23.77
2019-03-19T05:30:59.476Z,29.57
2019-03-19T05:33:29.797Z,17.30
2019-03-19T05:35:59.991Z,26.33
2019-03-19T05:38:30.971Z,22.87
2019-03-19T05:41:01.618Z,18.97
2019-03-19T05:43:32.216Z,22.83
2019-03-19T05:46:03.089Z,21.83
2019-03-19T05:48:33.407Z,23.07
2019-03-19T05:51:04.006Z,21.07
2019-03-19T05:53:34.331Z,20.03
2019-03-19T05:56:04.607Z,21.80
2019-03-19T05:58:34.697Z,20.93
2019-03-19T06:01:05.295Z,21.53
2019-03-19T06:03:35.467Z,21.03
2019-03-19T06:06:06.035Z,27.70
2019-03-19T06:08:36.896Z,14.50
2019-03-19T06:11:07.179Z,23.50
2019-03-19T06:13:38.039Z,13.50
2019-03-19T06:16:09.887Z,17.73
2019-03-19T06:18:40.701Z,26.13
2019-03-19T06:21:11.383Z,20.20
2019-03-19T06:23:41.521Z,18.13
2019-03-19T06:26:11.938Z,17.00
2019-03-19T06:28:42.547Z,22.43
2019-03-19T06:31:12.966Z,20.40
2019-03-19T06:33:43.318Z,26.87
2019-03-19T06:36:13.651Z,18.87
2019-03-19T06:38:44.168Z,20.37
2019-03-19T06:41:14.918Z,21.30
2019-03-19T06:43:45.188Z,22.83
2019-03-19T06:46:15.976Z,26.63
2019-03-19T06:48:46.442Z,20.80
2019-03-19T06:51:17.072Z,22.70
2019-03-19T06:53:47.272Z,19.17
2019-03-19T06:56:18.228Z,30.20
2019-03-19T06:58:48.606Z,21.33
2019-03-19T07:01:21.076Z,24.07
2019-03-19T07:03:51.873Z,34.30
2019-03-19T07:06:24.761Z,16.53
2019-03-19T07:08:54.642Z,21.97
2019-03-19T07:11:25.107Z,23.10
2019-03-19T07:13:55.336Z,28.97
2019-03-19T07:16:25.902Z,22.57
2019-03-19T07:18:56.239Z,21.90
2019-03-19T07:21:26.845Z,20.80
2019-03-19T07:23:57.285Z,25.67
2019-03-19T07:26:27.608Z,16.47
2019-03-19T07:28:58.177Z,24.10
2019-03-19T07:31:31.108Z,27.93
2019-03-19T07:34:00.722Z,27.70
2019-03-19T07:36:31.359Z,21.53
2019-03-19T07:39:02.090Z,25.83
2019-03-19T07:41:32.507Z,24.70
2019-03-19T07:44:02.707Z,23.33
2019-03-19T07:46:33.080Z,17.57
2019-03-19T07:49:03.392Z,64.90
2019-03-19T07:51:33.662Z,19.37
2019-03-19T07:54:11.276Z,17.90
2019-03-19T07:56:41.525Z,25.10
2019-03-19T07:59:12.766Z,22.83
2019-03-19T08:01:43.073Z,22.53
2019-03-19T08:04:13.596Z,25.83
2019-03-19T08:06:43.853Z,60.87
2019-03-19T08:09:15.195Z,22.30
2019-03-19T08:11:46.206Z,19.53
2019-03-19T08:14:16.989Z,20.53
2019-03-19T08:16:47.522Z,19.53
2019-03-19T08:19:18.148Z,18.10
2019-03-19T08:21:48.811Z,19.53
2019-03-19T08:24:18.958Z,22.10
2019-03-19T08:26:49.542Z,20.07
2019-03-19T08:29:19.869Z,21.97
2019-03-19T08:32:01.482Z,17.00
2019-03-19T08:34:32.097Z,18.93
2019-03-19T08:37:02.643Z,19.30
2019-03-19T08:39:33.156Z,16.07
2019-03-19T08:42:03.669Z,17.97
2019-03-19T08:44:35.209Z,19.20
2019-03-19T08:47:05.809Z,23.80
2019-03-19T08:49:36.210Z,17.20
2019-03-19T08:52:06.470Z,15.83
2019-03-19T08:54:37.107Z,15.27
2019-03-19T08:57:07.482Z,20.23
2019-03-19T08:59:38.087Z,16.37
2019-03-19T09:02:08.667Z,19.10
2019-03-19T09:04:39.185Z,20.43
2019-03-19T09:07:09.856Z,17.70
2019-03-19T09:09:40.742Z,15.20
2019-03-19T09:12:10.910Z,17.67
2019-03-19T09:14:41.267Z,16.27
2019-03-19T09:17:11.436Z,21.60
2019-03-19T09:19:42.246Z,17.87
2019-03-19T09:22:12.499Z,17.27
2019-03-19T09:24:42.760Z,16.83
2019-03-19T09:27:12.774Z,15.97
2019-03-19T09:29:43.654Z,16.10
2019-03-19T09:32:13.974Z,14.60
2019-03-19T09:34:54.395Z,15.23
2019-03-19T09:37:24.934Z,12.90
2019-03-19T09:39:55.247Z,12.77
2019-03-19T09:42:25.867Z,13.87
2019-03-19T09:44:58.717Z,11.40
2019-03-19T09:47:28.576Z,15.13
2019-03-19T09:49:59.120Z,12.53
2019-03-19T09:52:29.278Z,10.87
2019-03-19T09:55:00.774Z,9.97
2019-03-19T09:57:32.133Z,13.90
2019-03-19T10:00:02.543Z,10.60
2019-03-19T10:02:32.793Z,13.70
2019-03-19T10:05:04.258Z,8.37
2019-03-19T10:07:34.606Z,11.13
2019-03-19T10:10:06.061Z,11.07
2019-03-19T10:12:36.293Z,9.10
2019-03-19T10:15:07.906Z,12.60
2019-03-19T10:17:38.475Z,8.57
2019-03-19T10:20:11.645Z,8.63
2019-03-19T10:22:42.459Z,10.67
2019-03-19T10:25:16.110Z,9.87
2019-03-19T10:27:46.639Z,11.33
2019-03-19T10:30:18.589Z,8.33
2019-03-19T10:32:49.052Z,8.97
2019-03-19T10:35:19.359Z,9.17
2019-03-19T10:37:50.500Z,11.10
2019-03-19T10:40:20.836Z,12.70
2019-03-19T10:42:51.392Z,10.20
2019-03-19T10:45:21.734Z,6.67
2019-03-19T10:47:52.371Z,13.50
2019-03-19T10:50:22.861Z,10.87
2019-03-19T10:52:53.443Z,7.33
2019-03-19T10:55:24.098Z,8.63
2019-03-19T10:57:54.389Z,9.50
2019-03-19T11:00:25.331Z,13.93
2019-03-19T11:02:56.015Z,6.33
2019-03-19T11:05:26.453Z,13.70
2019-03-19T11:07:56.702Z,12.83
2019-03-19T11:10:27.273Z,7.87
2019-03-19T11:12:57.697Z,12.00
2019-03-19T11:15:28.089Z,8.47
2019-03-19T11:17:58.425Z,8.73
2019-03-19T11:20:28.688Z,10.63
2019-03-19T11:22:59.202Z,8.90
2019-03-19T11:25:29.521Z,11.97
2019-03-19T11:27:59.801Z,8.40
2019-03-19T11:30:30.170Z,11.57
2019-03-19T11:33:00.619Z,11.07
2019-03-19T11:35:31.063Z,7.37
2019-03-19T11:38:03.648Z,7.37
2019-03-19T11:40:33.876Z,11.17
2019-03-19T11:43:04.300Z,8.40
2019-03-19T11:45:35.108Z,8.60
2019-03-19T11:48:05.472Z,7.23
2019-03-19T11:50:35.778Z,7.80
2019-03-19T11:53:07.145Z,7.57
2019-03-19T11:55:38.801Z,9.67
2019-03-19T11:58:09.273Z,10.10
2019-03-19T12:00:42.288Z,7.13
2019-03-19T12:03:16.523Z,8.73
2019-03-19T12:05:44.667Z,10.27
2019-03-19T12:08:15.198Z,9.37
2019-03-19T12:10:45.665Z,9.97
2019-03-19T12:13:16.016Z,8.27
2019-03-19T12:15:46.600Z,11.43
2019-03-19T12:18:19.939Z,8.93
2019-03-19T12:20:50.365Z,6.60
2019-03-19T12:23:20.629Z,7.40
2019-03-19T12:25:50.842Z,7.73
2019-03-19T12:28:21.422Z,6.73
2019-03-19T12:30:51.710Z,8.93
2019-03-19T12:33:21.993Z,6.47
2019-03-19T12:35:52.370Z,6.93
2019-03-19T12:38:22.740Z,10.03
2019-03-19T12:40:53.061Z,8.27
2019-03-19T12:43:23.873Z,7.87
2019-03-19T12:45:54.134Z,5.40
2019-03-19T12:48:24.486Z,8.63
2019-03-19T12:50:54.918Z,5.87
2019-03-19T12:53:25.498Z,9.40
2019-03-19T12:55:56.240Z,5.83
2019-03-19T12:58:26.539Z,6.50
2019-03-19T13:00:56.836Z,8.87
2019-03-19T13:03:27.107Z,6.50
2019-03-19T13:05:58.366Z,9.30
2019-03-19T13:08:28.587Z,6.20
2019-03-19T13:10:58.951Z,13.53
2019-03-19T13:13:29.680Z,9.73
2019-03-19T13:15:59.802Z,8.03
2019-03-19T13:18:30.128Z,9.17
2019-03-19T13:21:00.627Z,7.67
2019-03-19T13:23:31.676Z,6.23
2019-03-19T13:26:01.934Z,7.17
2019-03-19T13:28:33.009Z,11.83
2019-03-19T13:31:08.061Z,8.13
2019-03-19T13:33:38.486Z,6.60
2019-03-19T13:36:08.923Z,7.07
2019-03-19T13:38:39.268Z,5.17
2019-03-19T13:41:09.611Z,10.17
2019-03-19T13:43:40.172Z,7.73
2019-03-19T13:46:10.785Z,6.77
2019-03-19T13:48:41.942Z,7.57
2019-03-19T13:51:12.503Z,7.37
2019-03-19T13:53:43.376Z,5.97
2019-03-19T13:56:14.046Z,5.97
2019-03-19T13:58:44.832Z,4.90
2019-03-19T14:01:15.400Z,5.37
2019-03-19T14:03:45.637Z,7.27
2019-03-19T14:06:16.107Z,5.10
2019-03-19T14:08:50.550Z,6.60
2019-03-19T14:11:20.903Z,6.17
2019-03-19T14:13:51.432Z,8.80
2019-03-19T14:16:22.022Z,5.50
2019-03-19T14:18:52.574Z,8.90
2019-03-19T14:21:23.204Z,6.70
2019-03-19T14:23:53.226Z,6.37
2019-03-19T14:26:23.808Z,4.63
2019-03-19T14:28:54.348Z,6.97
2019-03-19T14:31:24.590Z,7.53
2019-03-19T14:33:54.902Z,6.50
2019-03-19T14:36:25.591Z,7.73
2019-03-19T14:38:56.127Z,7.97
2019-03-19T14:41:26.704Z,7.63
2019-03-19T14:43:57.361Z,6.73
2019-03-19T14:46:28.086Z,7.37
2019-03-19T14:48:58.401Z,11.93
2019-03-19T14:51:29.165Z,9.60
2019-03-19T14:53:59.454Z,9.43
2019-03-19T14:56:29.780Z,7.90
2019-03-19T14:59:00.073Z,5.07
2019-03-19T15:01:30.429Z,6.57
2019-03-19T15:04:01.031Z,5.13
2019-03-19T15:06:31.320Z,6.43
2019-03-19T15:09:01.927Z,6.57
2019-03-19T15:11:32.433Z,7.83
2019-03-19T15:14:02.925Z,8.10
2019-03-19T15:16:33.475Z,7.83
2019-03-19T15:19:03.710Z,7.43
2019-03-19T15:21:33.985Z,5.20
2019-03-19T15:24:04.351Z,5.17
2019-03-19T15:26:34.816Z,12.23
2019-03-19T15:29:05.037Z,6.70
2019-03-19T15:31:35.315Z,8.03
2019-03-19T15:34:05.888Z,8.23
2019-03-19T15:36:36.144Z,7.73
2019-03-19T15:39:08.978Z,7.10
2019-03-19T15:41:41.264Z,7.47
2019-03-19T15:44:11.704Z,9.07
2019-03-19T15:46:42.234Z,7.10
2019-03-19T15:49:12.583Z,6.67
2019-03-19T15:51:43.109Z,8.87
2019-03-19T15:54:13.484Z,7.50
2019-03-19T15:56:43.825Z,8.20
2019-03-19T15:59:14.513Z,5.43
2019-03-19T16:01:44.734Z,8.27
2019-03-19T16:04:15.193Z,5.73
2019-03-19T16:06:45.536Z,6.10
2019-03-19T16:09:16.073Z,5.93
2019-03-19T16:11:47.520Z,8.13
2019-03-19T16:14:17.770Z,7.67
2019-03-19T16:16:48.114Z,6.60
2019-03-19T16:19:18.439Z,11.70
2019-03-19T16:21:48.622Z,9.10
2019-03-19T16:24:19.396Z,5.30
2019-03-19T16:26:53.360Z,7.27
2019-03-19T16:29:25.573Z,5.67
2019-03-19T16:31:55.732Z,8.10
2019-03-19T16:34:25.876Z,5.03
2019-03-19T16:36:56.311Z,8.23
2019-03-19T16:39:26.948Z,9.17
2019-03-19T16:41:57.173Z,9.80
2019-03-19T16:44:27.793Z,6.43
2019-03-19T16:46:57.927Z,7.07
2019-03-19T16:49:28.425Z,9.00
2019-03-19T16:51:58.622Z,7.57
2019-03-19T16:54:29.162Z,7.17
2019-03-19T16:56:59.428Z,5.53
2019-03-19T16:59:29.951Z,7.37
2019-03-19T17:02:01.772Z,5.03
2019-03-19T17:04:32.345Z,6.40
2019-03-19T17:07:02.617Z,6.83
2019-03-19T17:09:32.867Z,8.20
2019-03-19T17:12:03.270Z,8.63
2019-03-19T17:14:33.872Z,7.10
2019-03-19T17:17:04.117Z,7.53
2019-03-19T17:19:37.351Z,7.13
2019-03-19T17:22:07.719Z,6.20
2019-03-19T17:24:38.212Z,9.07
2019-03-19T17:27:08.870Z,5.77
2019-03-19T17:29:39.105Z,11.20
2019-03-19T17:32:13.119Z,6.47
2019-03-19T17:34:48.298Z,7.83
2019-03-19T17:37:18.626Z,6.87
2019-03-19T17:39:49.195Z,6.20
2019-03-19T17:42:20.546Z,6.83
2019-03-19T17:44:51.130Z,7.63
2019-03-19T17:47:21.411Z,10.07
2019-03-19T17:49:51.678Z,13.27
2019-03-19T17:52:21.977Z,11.83
2019-03-19T17:54:52.141Z,11.83
2019-03-19T17:57:31.236Z,10.17
2019-03-19T18:00:01.374Z,11.83
2019-03-19T18:02:31.856Z,8.93
2019-03-19T18:05:02.438Z,8.20
2019-03-19T18:07:32.561Z,9.10
2019-03-19T18:10:02.690Z,12.87
2019-03-19T18:12:33.244Z,13.97
2019-03-19T18:15:03.713Z,10.37
2019-03-19T18:17:34.369Z,12.80
2019-03-19T18:20:06.166Z,12.53
2019-03-19T18:22:37.003Z,11.60
2019-03-19T18:25:12.154Z,13.43
2019-03-19T18:27:42.560Z,15.73
2019-03-19T18:30:15.264Z,18.80
2019-03-19T18:32:46.167Z,15.30
2019-03-19T18:35:16.811Z,15.33
2019-03-19T18:37:47.364Z,19.20
2019-03-19T18:40:18.835Z,17.47
2019-03-19T18:42:49.176Z,14.27
2019-03-19T18:45:19.632Z,17.43
2019-03-19T18:47:49.979Z,16.90
2019-03-19T18:50:21.448Z,16.00
2019-03-19T18:52:52.440Z,21.73
2019-03-19T18:55:22.817Z,15.63
2019-03-19T18:57:53.132Z,17.73
2019-03-19T19:00:23.487Z,20.17
2019-03-19T19:02:53.979Z,15.60
2019-03-19T19:05:24.307Z,15.03
2019-03-19T19:07:55.244Z,16.27
2019-03-19T19:10:25.851Z,13.40
2019-03-19T19:12:56.216Z,21.97
2019-03-19T19:15:26.775Z,13.77
2019-03-19T19:17:57.152Z,17.03
2019-03-19T19:20:27.984Z,16.00
2019-03-19T19:22:58.303Z,13.43
2019-03-19T19:25:28.913Z,14.20
2019-03-19T19:27:59.681Z,14.67
2019-03-19T19:30:30.016Z,12.13
2019-03-19T19:33:02.551Z,13.97
2019-03-19T19:35:32.861Z,11.23
2019-03-19T19:38:03.671Z,12.80
2019-03-19T19:40:34.345Z,12.10
2019-03-19T19:43:04.680Z,12.47
2019-03-19T19:45:34.993Z,13.80
2019-03-19T19:48:05.295Z,13.47
2019-03-19T19:50:35.603Z,12.83
2019-03-19T19:53:05.953Z,13.30
2019-03-19T19:55:36.685Z,14.47
2019-03-19T19:58:06.976Z,13.97
2019-03-19T20:00:37.320Z,10.17
2019-03-19T20:03:12.124Z,10.47
2019-03-19T20:05:39.928Z,11.93
2019-03-19T20:08:10.821Z,13.77
2019-03-19T20:10:41.161Z,12.00
2019-03-19T20:13:11.464Z,14.90
2019-03-19T20:15:42.678Z,12.73
2019-03-19T20:18:13.269Z,15.20
2019-03-19T20:20:43.955Z,16.90
2019-03-19T20:23:14.564Z,11.63
2019-03-19T20:25:45.192Z,10.80
2019-03-19T20:28:15.779Z,12.53
2019-03-19T20:30:46.217Z,14.53
2019-03-19T20:33:24.710Z,17.87
2019-03-19T20:35:49.279Z,12.83
2019-03-19T20:38:19.631Z,10.43
2019-03-19T20:40:51.658Z,14.50
2019-03-19T20:43:22.466Z,12.07
2019-03-19T20:45:53.057Z,14.37
2019-03-19T20:48:23.406Z,14.43
2019-03-19T20:50:54.376Z,18.77
2019-03-19T20:53:25.279Z,18.33
2019-03-19T20:55:55.845Z,14.30
2019-03-19T20:58:26.103Z,19.67
2019-03-19T21:00:56.437Z,15.67
2019-03-19T21:03:35.458Z,18.27
2019-03-19T21:05:59.417Z,12.90
2019-03-19T21:08:30.058Z,15.27
2019-03-19T21:11:00.673Z,17.10
2019-03-19T21:13:30.926Z,22.53
2019-03-19T21:16:01.254Z,17.80
2019-03-19T21:18:31.627Z,14.87
2019-03-19T21:21:01.924Z,12.13
2019-03-19T21:23:32.572Z,15.03
2019-03-19T21:26:02.853Z,13.90
2019-03-19T21:28:33.924Z,17.03
2019-03-19T21:31:04.664Z,17.60
2019-03-19T21:33:35.056Z,17.33
2019-03-19T21:36:05.612Z,14.63
2019-03-19T21:38:36.120Z,16.40
2019-03-19T21:41:06.427Z,12.30
2019-03-19T21:43:36.747Z,15.63
2019-03-19T21:46:07.072Z,15.17
2019-03-19T21:48:37.786Z,14.60
2019-03-19T21:51:08.632Z,14.47
2019-03-19T21:53:38.857Z,13.90
2019-03-19T21:56:09.260Z,13.63
2019-03-19T21:58:39.615Z,12.97
2019-03-19T22:01:10.283Z,13.77
2019-03-19T22:03:40.615Z,11.33
2019-03-19T22:06:10.945Z,15.90
2019-03-19T22:08:41.161Z,16.37
2019-03-19T22:11:12.020Z,8.47
2019-03-19T22:13:42.252Z,13.23
2019-03-19T22:16:14.014Z,11.77
2019-03-19T22:18:44.338Z,14.90
2019-03-19T22:21:14.847Z,14.33
2019-03-19T22:23:45.183Z,12.83
2019-03-19T22:26:16.390Z,15.57
2019-03-19T22:28:47.008Z,12.27
2019-03-19T22:31:17.278Z,17.07
2019-03-19T22:33:48.033Z,13.47
2019-03-19T22:36:18.649Z,19.00
2019-03-19T22:38:48.883Z,10.37
2019-03-19T22:41:19.218Z,14.40
2019-03-19T22:43:49.735Z,11.97
2019-03-19T22:46:21.918Z,13.13
2019-03-19T22:48:52.718Z,13.33
2019-03-19T22:51:23.038Z,15.27
2019-03-19T22:53:53.315Z,13.23
2019-03-19T22:56:23.799Z,14.33
2019-03-19T22:58:54.155Z,9.10
2019-03-19T23:01:24.425Z,14.33
2019-03-19T23:03:54.927Z,11.17
2019-03-19T23:06:25.207Z,13.57
2019-03-19T23:10:06.859Z,15.83
2019-03-19T23:12:37.190Z,14.30
2019-03-19T23:16:19.026Z,14.13
2019-03-19T23:18:49.331Z,13.87
2019-03-19T23:21:19.943Z,14.57
2019-03-19T23:23:50.230Z,12.23
2019-03-19T23:26:20.572Z,13.90
2019-03-19T23:28:50.847Z,15.33
2019-03-19T23:31:21.755Z,13.40
2019-03-19T23:33:52.080Z,12.03
2019-03-19T23:36:22.374Z,11.27
2019-03-19T23:38:52.937Z,13.93
2019-03-19T23:41:23.443Z,12.70
2019-03-19T23:43:54.250Z,13.27
2019-03-19T23:46:24.585Z,11.50
2019-03-19T23:48:54.917Z,13.40
2019-03-19T23:51:25.229Z,12.00
2019-03-19T23:53:55.527Z,13.67
2019-03-19T23:56:25.803Z,12.83
2019-03-19T23:58:56.091Z,15.20
